Kezdőlap
METAR-TAF:

METAR-TAF

Repülőterek :

Chesterfield Inlet, Nunavut, Kanada

földrajzi szélesség: 63-20N, földrajzi hosszúság: 090-43W, magasság: 11 m

Jelenlegi meteorológiai megfigyelések

A jelentés 9 órával és 16 perccel ezelõtt készült, 22:00 UTC
Északi szél 11 kt
Hőmérséklet -1°C
Páratartalom 80%
Légköri nyomás 1019 hPa
Látótávolság: 24.1 km
Szakadozott felhőzet 1500 lábon

METAR: CYCS 212200Z 01011KT 15SM BKN015 M01/M04 A3008 RMK SC7 S00 AFT 12 UTC/LAST STFD OBS/NEXT 221200 UTC SLP190

Idő: 02:16 (07:16 UTC)


TAF: hiányzik

Meteorológiai megfigyelések és előrejelzések több, mint 4000 repülőtéren (METAR és TAF jelentéseket).

A térképen piros és sárga pontok jelzik az elérhető meteorológiai állomásokat.

Mozgassa az egeret a pont fölött, hogy megjelenjen az állomás neve.

Azután kattintson az időjárási megfigyelések és előrejelzések megtekintéséhez.

A térkép megváltoztatása: kattintson a fekete keresztel jelölt zöld gombra ráközelítéshez, a vonallal jelölt zöld gombra távolításhoz, vagy a zöld nyilakra a szomszédos térképek eléréséhez.


METAR-TAF: